sensor_id;sensor_type;location;lat;lon;timestamp;temperature;humidity
5461;DHT22;2753;49.196;8.286;2023-04-06T00:00:48;5.00;72.90
5461;DHT22;2753;49.196;8.286;2023-04-06T00:03:14;4.90;73.10
5461;DHT22;2753;49.196;8.286;2023-04-06T00:05:40;4.90;72.70
5461;DHT22;2753;49.196;8.286;2023-04-06T00:08:05;4.90;73.00
5461;DHT22;2753;49.196;8.286;2023-04-06T00:10:31;4.90;72.80
5461;DHT22;2753;49.196;8.286;2023-04-06T00:12:58;4.90;72.70
5461;DHT22;2753;49.196;8.286;2023-04-06T00:15:24;4.90;72.80
5461;DHT22;2753;49.196;8.286;2023-04-06T00:17:50;4.80;73.00
5461;DHT22;2753;49.196;8.286;2023-04-06T00:20:17;4.90;73.10
5461;DHT22;2753;49.196;8.286;2023-04-06T00:22:43;4.80;73.10
5461;DHT22;2753;49.196;8.286;2023-04-06T00:25:09;4.80;73.30
5461;DHT22;2753;49.196;8.286;2023-04-06T00:27:37;4.60;73.50
5461;DHT22;2753;49.196;8.286;2023-04-06T00:30:04;4.70;73.50
5461;DHT22;2753;49.196;8.286;2023-04-06T00:32:31;4.80;73.10
5461;DHT22;2753;49.196;8.286;2023-04-06T00:34:56;4.80;73.00
5461;DHT22;2753;49.196;8.286;2023-04-06T00:37:22;4.70;73.40
5461;DHT22;2753;49.196;8.286;2023-04-06T00:39:48;4.50;73.90
5461;DHT22;2753;49.196;8.286;2023-04-06T00:42:14;4.50;74.00
5461;DHT22;2753;49.196;8.286;2023-04-06T00:44:43;4.50;74.00
5461;DHT22;2753;49.196;8.286;2023-04-06T00:47:09;4.50;74.30
5461;DHT22;2753;49.196;8.286;2023-04-06T00:49:35;4.50;74.20
5461;DHT22;2753;49.196;8.286;2023-04-06T00:52:01;4.50;74.30
5461;DHT22;2753;49.196;8.286;2023-04-06T00:54:30;4.30;74.60
5461;DHT22;2753;49.196;8.286;2023-04-06T00:56:56;4.30;75.00
5461;DHT22;2753;49.196;8.286;2023-04-06T00:59:22;4.70;75.10
5461;DHT22;2753;49.196;8.286;2023-04-06T01:01:48;4.40;74.80
5461;DHT22;2753;49.196;8.286;2023-04-06T01:04:13;4.30;74.70
5461;DHT22;2753;49.196;8.286;2023-04-06T01:06:39;4.20;75.00
5461;DHT22;2753;49.196;8.286;2023-04-06T01:09:06;4.00;75.30
5461;DHT22;2753;49.196;8.286;2023-04-06T01:11:31;4.00;75.40
5461;DHT22;2753;49.196;8.286;2023-04-06T01:13:57;4.00;75.30
5461;DHT22;2753;49.196;8.286;2023-04-06T01:16:24;4.00;75.50
5461;DHT22;2753;49.196;8.286;2023-04-06T01:18:49;4.00;75.60
5461;DHT22;2753;49.196;8.286;2023-04-06T01:21:16;4.10;75.80
5461;DHT22;2753;49.196;8.286;2023-04-06T01:23:44;4.10;75.60
5461;DHT22;2753;49.196;8.286;2023-04-06T01:26:10;4.10;75.50
5461;DHT22;2753;49.196;8.286;2023-04-06T01:28:36;4.10;75.50
5461;DHT22;2753;49.196;8.286;2023-04-06T01:31:03;4.10;75.50
5461;DHT22;2753;49.196;8.286;2023-04-06T01:33:29;3.90;75.80
5461;DHT22;2753;49.196;8.286;2023-04-06T01:35:54;3.80;75.90
5461;DHT22;2753;49.196;8.286;2023-04-06T01:38:20;3.80;75.80
5461;DHT22;2753;49.196;8.286;2023-04-06T01:40:46;3.80;75.90
5461;DHT22;2753;49.196;8.286;2023-04-06T01:43:11;3.70;76.10
5461;DHT22;2753;49.196;8.286;2023-04-06T01:45:37;3.70;76.00
5461;DHT22;2753;49.196;8.286;2023-04-06T01:48:03;3.80;76.00
5461;DHT22;2753;49.196;8.286;2023-04-06T01:50:29;3.80;76.10
5461;DHT22;2753;49.196;8.286;2023-04-06T01:52:54;3.80;76.20
5461;DHT22;2753;49.196;8.286;2023-04-06T01:55:20;3.80;76.10
5461;DHT22;2753;49.196;8.286;2023-04-06T01:57:46;3.80;76.00
5461;DHT22;2753;49.196;8.286;2023-04-06T02:00:12;3.80;76.60
5461;DHT22;2753;49.196;8.286;2023-04-06T02:02:38;3.80;76.60
5461;DHT22;2753;49.196;8.286;2023-04-06T02:05:04;3.80;76.60
5461;DHT22;2753;49.196;8.286;2023-04-06T02:07:30;3.60;77.20
5461;DHT22;2753;49.196;8.286;2023-04-06T02:09:55;3.60;77.20
5461;DHT22;2753;49.196;8.286;2023-04-06T02:12:21;3.70;77.20
5461;DHT22;2753;49.196;8.286;2023-04-06T02:14:47;3.70;77.70
5461;DHT22;2753;49.196;8.286;2023-04-06T02:17:13;3.70;77.50
5461;DHT22;2753;49.196;8.286;2023-04-06T02:19:38;3.60;77.90
5461;DHT22;2753;49.196;8.286;2023-04-06T02:22:04;3.70;77.80
5461;DHT22;2753;49.196;8.286;2023-04-06T02:24:29;3.60;77.90
5461;DHT22;2753;49.196;8.286;2023-04-06T02:26:55;3.50;78.50
5461;DHT22;2753;49.196;8.286;2023-04-06T02:29:21;3.50;78.60
5461;DHT22;2753;49.196;8.286;2023-04-06T02:31:46;3.60;78.30
5461;DHT22;2753;49.196;8.286;2023-04-06T02:34:12;3.60;78.20
5461;DHT22;2753;49.196;8.286;2023-04-06T02:36:44;3.60;78.00
5461;DHT22;2753;49.196;8.286;2023-04-06T02:39:10;3.50;78.10
5461;DHT22;2753;49.196;8.286;2023-04-06T02:41:36;3.50;78.20
5461;DHT22;2753;49.196;8.286;2023-04-06T02:44:02;3.50;78.10
5461;DHT22;2753;49.196;8.286;2023-04-06T02:46:28;3.40;78.40
5461;DHT22;2753;49.196;8.286;2023-04-06T02:48:53;3.70;79.60
5461;DHT22;2753;49.196;8.286;2023-04-06T02:51:19;3.30;78.40
5461;DHT22;2753;49.196;8.286;2023-04-06T02:53:45;3.40;78.30
5461;DHT22;2753;49.196;8.286;2023-04-06T02:56:11;3.40;78.30
5461;DHT22;2753;49.196;8.286;2023-04-06T02:58:36;3.30;78.30
5461;DHT22;2753;49.196;8.286;2023-04-06T03:01:02;3.30;78.50
5461;DHT22;2753;49.196;8.286;2023-04-06T03:03:28;3.20;78.60
5461;DHT22;2753;49.196;8.286;2023-04-06T03:05:54;3.10;78.90
5461;DHT22;2753;49.196;8.286;2023-04-06T03:08:21;3.10;78.80
5461;DHT22;2753;49.196;8.286;2023-04-06T03:10:47;3.10;78.90
5461;DHT22;2753;49.196;8.286;2023-04-06T03:13:12;3.10;79.10
5461;DHT22;2753;49.196;8.286;2023-04-06T03:15:38;3.10;79.00
5461;DHT22;2753;49.196;8.286;2023-04-06T03:18:03;3.10;78.80
5461;DHT22;2753;49.196;8.286;2023-04-06T03:20:29;3.20;78.60
5461;DHT22;2753;49.196;8.286;2023-04-06T03:22:55;3.30;78.50
5461;DHT22;2753;49.196;8.286;2023-04-06T03:25:21;2.60;77.90
5461;DHT22;2753;49.196;8.286;2023-04-06T03:27:46;3.20;79.00
5461;DHT22;2753;49.196;8.286;2023-04-06T03:30:12;3.20;78.90
5461;DHT22;2753;49.196;8.286;2023-04-06T03:32:38;3.20;78.80
5461;DHT22;2753;49.196;8.286;2023-04-06T03:35:04;3.20;78.70
5461;DHT22;2753;49.196;8.286;2023-04-06T03:37:29;3.10;78.80
5461;DHT22;2753;49.196;8.286;2023-04-06T03:39:55;3.10;79.20
5461;DHT22;2753;49.196;8.286;2023-04-06T03:42:21;3.00;79.70
5461;DHT22;2753;49.196;8.286;2023-04-06T03:44:46;3.00;79.70
5461;DHT22;2753;49.196;8.286;2023-04-06T03:47:12;3.10;79.20
5461;DHT22;2753;49.196;8.286;2023-04-06T03:49:37;3.10;79.20
5461;DHT22;2753;49.196;8.286;2023-04-06T03:52:03;3.10;78.80
5461;DHT22;2753;49.196;8.286;2023-04-06T03:54:29;3.10;78.90
5461;DHT22;2753;49.196;8.286;2023-04-06T03:56:55;2.90;79.50
5461;DHT22;2753;49.196;8.286;2023-04-06T03:59:20;2.80;80.00
5461;DHT22;2753;49.196;8.286;2023-04-06T04:01:46;2.70;80.10
5461;DHT22;2753;49.196;8.286;2023-04-06T04:04:11;2.70;80.20
5461;DHT22;2753;49.196;8.286;2023-04-06T04:06:37;2.70;80.40
5461;DHT22;2753;49.196;8.286;2023-04-06T04:09:03;2.70;80.40
5461;DHT22;2753;49.196;8.286;2023-04-06T04:11:28;2.70;80.50
5461;DHT22;2753;49.196;8.286;2023-04-06T04:13:54;2.70;80.30
5461;DHT22;2753;49.196;8.286;2023-04-06T04:16:20;2.70;80.40
5461;DHT22;2753;49.196;8.286;2023-04-06T04:18:45;2.70;80.60
5461;DHT22;2753;49.196;8.286;2023-04-06T04:21:12;2.70;80.60
5461;DHT22;2753;49.196;8.286;2023-04-06T04:23:38;2.70;80.20
5461;DHT22;2753;49.196;8.286;2023-04-06T04:26:04;2.60;80.40
5461;DHT22;2753;49.196;8.286;2023-04-06T04:28:30;2.60;80.60
5461;DHT22;2753;49.196;8.286;2023-04-06T04:30:55;2.50;80.80
5461;DHT22;2753;49.196;8.286;2023-04-06T04:33:21;2.50;80.70
5461;DHT22;2753;49.196;8.286;2023-04-06T04:35:47;2.50;80.70
5461;DHT22;2753;49.196;8.286;2023-04-06T04:38:12;2.50;81.10
5461;DHT22;2753;49.196;8.286;2023-04-06T04:40:38;2.40;81.20
5461;DHT22;2753;49.196;8.286;2023-04-06T04:43:03;2.50;81.20
5461;DHT22;2753;49.196;8.286;2023-04-06T04:45:29;2.50;81.50
5461;DHT22;2753;49.196;8.286;2023-04-06T04:47:55;2.50;81.70
5461;DHT22;2753;49.196;8.286;2023-04-06T04:50:21;2.40;81.90
5461;DHT22;2753;49.196;8.286;2023-04-06T04:52:46;2.30;82.10
5461;DHT22;2753;49.196;8.286;2023-04-06T04:55:12;2.20;82.90
5461;DHT22;2753;49.196;8.286;2023-04-06T04:57:37;2.20;83.10
5461;DHT22;2753;49.196;8.286;2023-04-06T05:00:03;2.30;82.80
5461;DHT22;2753;49.196;8.286;2023-04-06T05:02:29;2.40;82.70
5461;DHT22;2753;49.196;8.286;2023-04-06T05:04:55;2.40;82.90
5461;DHT22;2753;49.196;8.286;2023-04-06T05:07:20;2.30;83.00
5461;DHT22;2753;49.196;8.286;2023-04-06T05:09:46;2.30;82.70
5461;DHT22;2753;49.196;8.286;2023-04-06T05:12:12;2.30;83.10
5461;DHT22;2753;49.196;8.286;2023-04-06T05:14:38;2.30;83.30
5461;DHT22;2753;49.196;8.286;2023-04-06T05:17:04;2.30;83.50
5461;DHT22;2753;49.196;8.286;2023-04-06T05:19:29;2.20;84.30
5461;DHT22;2753;49.196;8.286;2023-04-06T05:21:55;2.20;84.40
5461;DHT22;2753;49.196;8.286;2023-04-06T05:24:21;2.20;84.60
5461;DHT22;2753;49.196;8.286;2023-04-06T05:26:48;2.20;84.70
5461;DHT22;2753;49.196;8.286;2023-04-06T05:29:14;2.30;84.90
5461;DHT22;2753;49.196;8.286;2023-04-06T05:31:40;2.30;84.30
5461;DHT22;2753;49.196;8.286;2023-04-06T05:34:06;2.30;85.30
5461;DHT22;2753;49.196;8.286;2023-04-06T05:36:32;2.30;84.60
5461;DHT22;2753;49.196;8.286;2023-04-06T05:38:58;2.20;85.80
5461;DHT22;2753;49.196;8.286;2023-04-06T05:41:24;2.10;86.80
5461;DHT22;2753;49.196;8.286;2023-04-06T05:43:50;2.20;86.70
5461;DHT22;2753;49.196;8.286;2023-04-06T05:46:15;2.10;87.30
5461;DHT22;2753;49.196;8.286;2023-04-06T05:48:41;2.10;87.40
5461;DHT22;2753;49.196;8.286;2023-04-06T05:51:06;2.10;88.30
5461;DHT22;2753;49.196;8.286;2023-04-06T05:53:32;2.10;88.80
5461;DHT22;2753;49.196;8.286;2023-04-06T05:56:02;2.20;88.40
5461;DHT22;2753;49.196;8.286;2023-04-06T05:58:28;2.20;88.70
5461;DHT22;2753;49.196;8.286;2023-04-06T06:00:58;2.20;89.70
5461;DHT22;2753;49.196;8.286;2023-04-06T06:03:24;2.20;89.60
5461;DHT22;2753;49.196;8.286;2023-04-06T06:05:50;2.20;89.70
5461;DHT22;2753;49.196;8.286;2023-04-06T06:08:15;2.30;89.50
5461;DHT22;2753;49.196;8.286;2023-04-06T06:10:41;2.30;89.80
5461;DHT22;2753;49.196;8.286;2023-04-06T06:13:07;2.50;90.00
5461;DHT22;2753;49.196;8.286;2023-04-06T06:15:33;3.10;89.40
5461;DHT22;2753;49.196;8.286;2023-04-06T06:17:58;4.70;86.50
5461;DHT22;2753;49.196;8.286;2023-04-06T06:20:24;6.20;82.00
5461;DHT22;2753;49.196;8.286;2023-04-06T06:22:50;6.30;78.40
5461;DHT22;2753;49.196;8.286;2023-04-06T06:25:16;5.40;79.40
5461;DHT22;2753;49.196;8.286;2023-04-06T06:27:41;4.60;82.40
5461;DHT22;2753;49.196;8.286;2023-04-06T06:30:08;4.80;83.40
5461;DHT22;2753;49.196;8.286;2023-04-06T06:32:34;5.30;82.00
5461;DHT22;2753;49.196;8.286;2023-04-06T06:34:59;5.80;80.60
5461;DHT22;2753;49.196;8.286;2023-04-06T06:37:25;5.50;81.20
5461;DHT22;2753;49.196;8.286;2023-04-06T06:39:51;5.30;82.30
5461;DHT22;2753;49.196;8.286;2023-04-06T06:42:16;5.50;81.50
5461;DHT22;2753;49.196;8.286;2023-04-06T06:44:42;5.40;82.00
5461;DHT22;2753;49.196;8.286;2023-04-06T06:47:08;5.10;83.50
5461;DHT22;2753;49.196;8.286;2023-04-06T06:49:33;4.80;84.20
5461;DHT22;2753;49.196;8.286;2023-04-06T06:51:59;4.90;85.30
5461;DHT22;2753;49.196;8.286;2023-04-06T06:54:24;5.10;84.60
5461;DHT22;2753;49.196;8.286;2023-04-06T06:56:50;5.40;84.70
5461;DHT22;2753;49.196;8.286;2023-04-06T06:59:16;5.70;84.20
5461;DHT22;2753;49.196;8.286;2023-04-06T07:01:42;5.60;83.50
5461;DHT22;2753;49.196;8.286;2023-04-06T07:04:07;5.50;83.60
5461;DHT22;2753;49.196;8.286;2023-04-06T07:06:35;5.70;84.00
5461;DHT22;2753;49.196;8.286;2023-04-06T07:09:02;5.80;84.30
5461;DHT22;2753;49.196;8.286;2023-04-06T07:11:29;5.80;83.60
5461;DHT22;2753;49.196;8.286;2023-04-06T07:13:55;5.90;83.70
5461;DHT22;2753;49.196;8.286;2023-04-06T07:16:20;5.90;83.50
5461;DHT22;2753;49.196;8.286;2023-04-06T07:18:46;5.80;83.50
5461;DHT22;2753;49.196;8.286;2023-04-06T07:21:12;5.90;84.70
5461;DHT22;2753;49.196;8.286;2023-04-06T07:23:38;6.00;83.60
5461;DHT22;2753;49.196;8.286;2023-04-06T07:26:32;6.10;83.40
5461;DHT22;2753;49.196;8.286;2023-04-06T07:28:58;6.20;83.10
5461;DHT22;2753;49.196;8.286;2023-04-06T07:31:24;6.40;82.90
5461;DHT22;2753;49.196;8.286;2023-04-06T07:33:49;6.60;82.30
5461;DHT22;2753;49.196;8.286;2023-04-06T07:36:15;6.90;81.90
5461;DHT22;2753;49.196;8.286;2023-04-06T07:38:41;6.90;82.20
5461;DHT22;2753;49.196;8.286;2023-04-06T07:41:06;6.90;81.80
5461;DHT22;2753;49.196;8.286;2023-04-06T07:43:32;6.90;81.60
5461;DHT22;2753;49.196;8.286;2023-04-06T07:45:58;6.70;81.70
5461;DHT22;2753;49.196;8.286;2023-04-06T07:48:25;6.90;82.60
5461;DHT22;2753;49.196;8.286;2023-04-06T07:50:50;6.80;81.30
5461;DHT22;2753;49.196;8.286;2023-04-06T07:53:16;7.10;82.00
5461;DHT22;2753;49.196;8.286;2023-04-06T07:55:42;7.30;80.70
5461;DHT22;2753;49.196;8.286;2023-04-06T07:58:07;7.30;79.30
5461;DHT22;2753;49.196;8.286;2023-04-06T08:00:33;7.50;79.70
5461;DHT22;2753;49.196;8.286;2023-04-06T08:02:59;7.50;80.00
5461;DHT22;2753;49.196;8.286;2023-04-06T08:05:24;7.40;79.80
5461;DHT22;2753;49.196;8.286;2023-04-06T08:07:50;7.40;79.60
5461;DHT22;2753;49.196;8.286;2023-04-06T08:10:16;7.40;79.40
5461;DHT22;2753;49.196;8.286;2023-04-06T08:12:41;7.50;79.30
5461;DHT22;2753;49.196;8.286;2023-04-06T08:15:07;7.60;79.70
5461;DHT22;2753;49.196;8.286;2023-04-06T08:17:33;7.80;79.90
5461;DHT22;2753;49.196;8.286;2023-04-06T08:19:59;7.70;78.70
5461;DHT22;2753;49.196;8.286;2023-04-06T08:22:25;7.80;79.00
5461;DHT22;2753;49.196;8.286;2023-04-06T08:24:51;7.90;78.90
5461;DHT22;2753;49.196;8.286;2023-04-06T08:27:17;8.10;79.00
5461;DHT22;2753;49.196;8.286;2023-04-06T08:29:43;8.20;77.30
5461;DHT22;2753;49.196;8.286;2023-04-06T08:32:08;8.40;76.90
5461;DHT22;2753;49.196;8.286;2023-04-06T08:34:34;8.30;76.40
5461;DHT22;2753;49.196;8.286;2023-04-06T08:37:00;8.50;77.30
5461;DHT22;2753;49.196;8.286;2023-04-06T08:39:26;8.60;76.80
5461;DHT22;2753;49.196;8.286;2023-04-06T08:41:53;8.70;76.60
5461;DHT22;2753;49.196;8.286;2023-04-06T08:44:22;8.90;75.00
5461;DHT22;2753;49.196;8.286;2023-04-06T08:46:48;8.90;74.60
5461;DHT22;2753;49.196;8.286;2023-04-06T08:49:16;9.00;74.80
5461;DHT22;2753;49.196;8.286;2023-04-06T08:51:42;9.00;74.90
5461;DHT22;2753;49.196;8.286;2023-04-06T08:54:07;9.20;75.10
5461;DHT22;2753;49.196;8.286;2023-04-06T08:56:36;9.30;73.70
5461;DHT22;2753;49.196;8.286;2023-04-06T08:59:03;9.50;74.40
5461;DHT22;2753;49.196;8.286;2023-04-06T09:01:29;9.70;73.70
5461;DHT22;2753;49.196;8.286;2023-04-06T09:03:58;9.80;73.00
5461;DHT22;2753;49.196;8.286;2023-04-06T09:06:25;9.90;72.80
5461;DHT22;2753;49.196;8.286;2023-04-06T09:08:54;10.00;71.40
5461;DHT22;2753;49.196;8.286;2023-04-06T09:11:20;10.30;71.10
5461;DHT22;2753;49.196;8.286;2023-04-06T09:13:48;10.30;69.60
5461;DHT22;2753;49.196;8.286;2023-04-06T09:16:14;10.40;71.10
5461;DHT22;2753;49.196;8.286;2023-04-06T09:18:39;10.50;70.80
5461;DHT22;2753;49.196;8.286;2023-04-06T09:21:06;10.70;69.90
5461;DHT22;2753;49.196;8.286;2023-04-06T09:23:32;10.60;68.30
5461;DHT22;2753;49.196;8.286;2023-04-06T09:26:14;10.70;69.00
5461;DHT22;2753;49.196;8.286;2023-04-06T09:28:47;10.90;68.70
5461;DHT22;2753;49.196;8.286;2023-04-06T09:31:15;11.20;68.80
5461;DHT22;2753;49.196;8.286;2023-04-06T09:33:43;11.20;68.90
5461;DHT22;2753;49.196;8.286;2023-04-06T09:36:09;11.40;68.60
5461;DHT22;2753;49.196;8.286;2023-04-06T09:38:39;11.50;67.50
5461;DHT22;2753;49.196;8.286;2023-04-06T09:41:24;11.40;66.10
5461;DHT22;2753;49.196;8.286;2023-04-06T09:43:52;11.30;65.80
5461;DHT22;2753;49.196;8.286;2023-04-06T09:46:20;11.20;66.00
5461;DHT22;2753;49.196;8.286;2023-04-06T09:48:48;11.10;64.70
5461;DHT22;2753;49.196;8.286;2023-04-06T09:51:16;11.30;65.60
5461;DHT22;2753;49.196;8.286;2023-04-06T09:53:44;11.30;65.80
5461;DHT22;2753;49.196;8.286;2023-04-06T09:56:17;11.30;65.40
5461;DHT22;2753;49.196;8.286;2023-04-06T09:58:46;11.40;65.10
5461;DHT22;2753;49.196;8.286;2023-04-06T10:01:18;11.40;64.60
5461;DHT22;2753;49.196;8.286;2023-04-06T10:06:28;11.40;65.60
5461;DHT22;2753;49.196;8.286;2023-04-06T10:08:57;11.40;63.60
5461;DHT22;2753;49.196;8.286;2023-04-06T10:11:23;11.50;64.50
5461;DHT22;2753;49.196;8.286;2023-04-06T10:13:50;11.60;63.60
5461;DHT22;2753;49.196;8.286;2023-04-06T10:16:16;11.50;62.60
5461;DHT22;2753;49.196;8.286;2023-04-06T10:18:47;11.50;61.80
5461;DHT22;2753;49.196;8.286;2023-04-06T10:21:16;11.60;62.30
5461;DHT22;2753;49.196;8.286;2023-04-06T10:23:49;11.70;61.80
5461;DHT22;2753;49.196;8.286;2023-04-06T10:26:19;11.70;61.40
5461;DHT22;2753;49.196;8.286;2023-04-06T10:28:47;11.70;61.50
5461;DHT22;2753;49.196;8.286;2023-04-06T10:31:13;11.80;59.90
5461;DHT22;2753;49.196;8.286;2023-04-06T10:33:39;11.80;60.70
5461;DHT22;2753;49.196;8.286;2023-04-06T10:36:22;12.00;60.00
5461;DHT22;2753;49.196;8.286;2023-04-06T10:38:55;12.00;60.40
5461;DHT22;2753;49.196;8.286;2023-04-06T10:41:21;12.00;60.00
5461;DHT22;2753;49.196;8.286;2023-04-06T10:43:55;12.10;61.30
5461;DHT22;2753;49.196;8.286;2023-04-06T10:46:26;12.20;60.00
5461;DHT22;2753;49.196;8.286;2023-04-06T10:48:52;12.30;58.80
5461;DHT22;2753;49.196;8.286;2023-04-06T10:51:19;12.20;58.20
5461;DHT22;2753;49.196;8.286;2023-04-06T10:53:49;12.30;58.00
5461;DHT22;2753;49.196;8.286;2023-04-06T10:56:17;12.20;56.90
5461;DHT22;2753;49.196;8.286;2023-04-06T10:58:48;12.20;57.20
5461;DHT22;2753;49.196;8.286;2023-04-06T11:01:15;12.30;56.70
5461;DHT22;2753;49.196;8.286;2023-04-06T11:03:51;12.40;58.20
5461;DHT22;2753;49.196;8.286;2023-04-06T11:06:30;12.50;55.30
5461;DHT22;2753;49.196;8.286;2023-04-06T11:08:57;12.40;55.60
5461;DHT22;2753;49.196;8.286;2023-04-06T11:11:24;12.50;55.80
5461;DHT22;2753;49.196;8.286;2023-04-06T11:13:55;12.60;56.10
5461;DHT22;2753;49.196;8.286;2023-04-06T11:16:24;12.60;56.00
5461;DHT22;2753;49.196;8.286;2023-04-06T11:22:06;12.70;56.70
5461;DHT22;2753;49.196;8.286;2023-04-06T11:24:23;12.70;55.30
5461;DHT22;2753;49.196;8.286;2023-04-06T11:26:57;12.80;55.90
5461;DHT22;2753;49.196;8.286;2023-04-06T11:29:27;12.80;55.10
5461;DHT22;2753;49.196;8.286;2023-04-06T11:34:25;12.80;55.20
5461;DHT22;2753;49.196;8.286;2023-04-06T11:37:01;12.90;55.00
5461;DHT22;2753;49.196;8.286;2023-04-06T11:39:29;12.90;55.40
5461;DHT22;2753;49.196;8.286;2023-04-06T11:41:59;13.00;56.10
5461;DHT22;2753;49.196;8.286;2023-04-06T11:46:57;12.90;53.70
5461;DHT22;2753;49.196;8.286;2023-04-06T11:49:29;12.90;54.40
5461;DHT22;2753;49.196;8.286;2023-04-06T11:51:57;13.00;54.60
5461;DHT22;2753;49.196;8.286;2023-04-06T11:54:37;13.10;54.50
5461;DHT22;2753;49.196;8.286;2023-04-06T11:57:04;13.10;53.10
5461;DHT22;2753;49.196;8.286;2023-04-06T11:59:33;13.10;53.00
5461;DHT22;2753;49.196;8.286;2023-04-06T12:02:00;13.00;52.50
5461;DHT22;2753;49.196;8.286;2023-04-06T12:04:26;13.10;52.70
5461;DHT22;2753;49.196;8.286;2023-04-06T12:06:52;13.20;51.40
5461;DHT22;2753;49.196;8.286;2023-04-06T12:09:18;13.30;52.00
5461;DHT22;2753;49.196;8.286;2023-04-06T12:11:44;13.30;50.60
5461;DHT22;2753;49.196;8.286;2023-04-06T12:14:10;13.40;51.50
5461;DHT22;2753;49.196;8.286;2023-04-06T12:16:36;13.30;51.10
5461;DHT22;2753;49.196;8.286;2023-04-06T12:19:01;13.40;50.80
5461;DHT22;2753;49.196;8.286;2023-04-06T12:21:27;13.50;51.50
5461;DHT22;2753;49.196;8.286;2023-04-06T12:23:54;13.60;51.50
5461;DHT22;2753;49.196;8.286;2023-04-06T12:26:21;13.60;51.30
5461;DHT22;2753;49.196;8.286;2023-04-06T12:28:47;13.60;50.60
5461;DHT22;2753;49.196;8.286;2023-04-06T12:31:17;13.60;50.40
5461;DHT22;2753;49.196;8.286;2023-04-06T12:33:43;13.50;50.20
5461;DHT22;2753;49.196;8.286;2023-04-06T12:36:14;13.50;51.50
5461;DHT22;2753;49.196;8.286;2023-04-06T12:38:44;13.60;50.50
5461;DHT22;2753;49.196;8.286;2023-04-06T12:41:11;13.70;50.80
5461;DHT22;2753;49.196;8.286;2023-04-06T12:43:37;13.70;51.60
5461;DHT22;2753;49.196;8.286;2023-04-06T12:46:03;13.60;50.40
5461;DHT22;2753;49.196;8.286;2023-04-06T12:48:29;13.50;51.20
5461;DHT22;2753;49.196;8.286;2023-04-06T12:51:01;13.70;51.90
5461;DHT22;2753;49.196;8.286;2023-04-06T12:53:27;13.80;51.80
5461;DHT22;2753;49.196;8.286;2023-04-06T12:55:54;13.80;50.00
5461;DHT22;2753;49.196;8.286;2023-04-06T12:58:21;13.90;50.50
5461;DHT22;2753;49.196;8.286;2023-04-06T13:00:48;13.90;50.40
5461;DHT22;2753;49.196;8.286;2023-04-06T13:03:14;13.90;49.50
5461;DHT22;2753;49.196;8.286;2023-04-06T13:05:50;13.80;49.40
5461;DHT22;2753;49.196;8.286;2023-04-06T13:08:17;13.80;49.00
5461;DHT22;2753;49.196;8.286;2023-04-06T13:10:44;13.80;49.90
5461;DHT22;2753;49.196;8.286;2023-04-06T13:13:10;13.90;49.50
5461;DHT22;2753;49.196;8.286;2023-04-06T13:15:36;13.80;49.70
5461;DHT22;2753;49.196;8.286;2023-04-06T13:18:02;13.80;49.00
5461;DHT22;2753;49.196;8.286;2023-04-06T13:20:28;13.80;49.50
5461;DHT22;2753;49.196;8.286;2023-04-06T13:22:55;13.80;48.30
5461;DHT22;2753;49.196;8.286;2023-04-06T13:25:21;13.80;48.20
5461;DHT22;2753;49.196;8.286;2023-04-06T13:27:46;13.80;48.00
5461;DHT22;2753;49.196;8.286;2023-04-06T13:30:14;13.80;48.40
5461;DHT22;2753;49.196;8.286;2023-04-06T13:32:40;13.80;47.20
5461;DHT22;2753;49.196;8.286;2023-04-06T13:35:06;13.80;47.30
5461;DHT22;2753;49.196;8.286;2023-04-06T13:37:33;13.80;46.80
5461;DHT22;2753;49.196;8.286;2023-04-06T13:39:59;13.80;48.00
5461;DHT22;2753;49.196;8.286;2023-04-06T13:42:25;13.80;47.00
5461;DHT22;2753;49.196;8.286;2023-04-06T13:44:52;13.80;47.80
5461;DHT22;2753;49.196;8.286;2023-04-06T13:47:18;13.90;48.00
5461;DHT22;2753;49.196;8.286;2023-04-06T13:49:44;13.80;46.40
5461;DHT22;2753;49.196;8.286;2023-04-06T13:52:10;13.90;47.00
5461;DHT22;2753;49.196;8.286;2023-04-06T13:54:36;13.90;47.60
5461;DHT22;2753;49.196;8.286;2023-04-06T13:57:02;13.90;46.60
5461;DHT22;2753;49.196;8.286;2023-04-06T13:59:34;13.90;46.90
5461;DHT22;2753;49.196;8.286;2023-04-06T14:02:01;13.90;46.10
5461;DHT22;2753;49.196;8.286;2023-04-06T14:04:27;13.90;45.70
5461;DHT22;2753;49.196;8.286;2023-04-06T14:06:53;13.80;45.50
5461;DHT22;2753;49.196;8.286;2023-04-06T14:09:19;13.90;46.80
5461;DHT22;2753;49.196;8.286;2023-04-06T14:11:44;13.80;46.40
5461;DHT22;2753;49.196;8.286;2023-04-06T14:14:10;13.90;47.30
5461;DHT22;2753;49.196;8.286;2023-04-06T14:16:36;13.90;46.80
5461;DHT22;2753;49.196;8.286;2023-04-06T14:19:02;13.90;45.90
5461;DHT22;2753;49.196;8.286;2023-04-06T14:21:28;13.90;45.30
5461;DHT22;2753;49.196;8.286;2023-04-06T14:23:53;13.90;46.10
5461;DHT22;2753;49.196;8.286;2023-04-06T14:26:19;13.90;47.00
5461;DHT22;2753;49.196;8.286;2023-04-06T14:28:45;13.90;45.60
5461;DHT22;2753;49.196;8.286;2023-04-06T14:31:13;13.80;46.20
5461;DHT22;2753;49.196;8.286;2023-04-06T14:33:40;13.80;47.10
5461;DHT22;2753;49.196;8.286;2023-04-06T14:36:07;13.80;47.00
5461;DHT22;2753;49.196;8.286;2023-04-06T14:38:33;13.80;46.80
5461;DHT22;2753;49.196;8.286;2023-04-06T14:40:58;13.80;46.60
5461;DHT22;2753;49.196;8.286;2023-04-06T14:43:24;13.80;47.70
5461;DHT22;2753;49.196;8.286;2023-04-06T14:45:51;13.80;48.80
5461;DHT22;2753;49.196;8.286;2023-04-06T14:48:16;13.80;49.20
5461;DHT22;2753;49.196;8.286;2023-04-06T14:50:52;13.80;49.40
5461;DHT22;2753;49.196;8.286;2023-04-06T14:53:19;13.80;49.30
5461;DHT22;2753;49.196;8.286;2023-04-06T14:55:44;13.70;49.00
5461;DHT22;2753;49.196;8.286;2023-04-06T14:58:10;13.70;49.00
5461;DHT22;2753;49.196;8.286;2023-04-06T15:00:38;13.70;49.40
5461;DHT22;2753;49.196;8.286;2023-04-06T15:03:04;13.70;50.00
5461;DHT22;2753;49.196;8.286;2023-04-06T15:05:30;13.80;50.40
5461;DHT22;2753;49.196;8.286;2023-04-06T15:07:56;13.80;50.90
5461;DHT22;2753;49.196;8.286;2023-04-06T15:10:22;13.70;51.00
5461;DHT22;2753;49.196;8.286;2023-04-06T15:12:47;13.70;51.60
5461;DHT22;2753;49.196;8.286;2023-04-06T15:15:13;13.70;51.80
5461;DHT22;2753;49.196;8.286;2023-04-06T15:17:38;13.70;52.00
5461;DHT22;2753;49.196;8.286;2023-04-06T15:20:05;13.70;52.00
5461;DHT22;2753;49.196;8.286;2023-04-06T15:22:31;13.70;52.30
5461;DHT22;2753;49.196;8.286;2023-04-06T15:24:57;13.70;52.60
5461;DHT22;2753;49.196;8.286;2023-04-06T15:27:22;13.70;53.00
5461;DHT22;2753;49.196;8.286;2023-04-06T15:29:48;13.70;53.40
5461;DHT22;2753;49.196;8.286;2023-04-06T15:32:13;13.70;53.10
5461;DHT22;2753;49.196;8.286;2023-04-06T15:34:39;13.60;52.80
5461;DHT22;2753;49.196;8.286;2023-04-06T15:37:05;13.60;53.20
5461;DHT22;2753;49.196;8.286;2023-04-06T15:39:31;13.60;53.10
5461;DHT22;2753;49.196;8.286;2023-04-06T15:41:57;13.50;53.50
5461;DHT22;2753;49.196;8.286;2023-04-06T15:44:23;13.50;53.80
5461;DHT22;2753;49.196;8.286;2023-04-06T15:46:50;13.50;54.10
5461;DHT22;2753;49.196;8.286;2023-04-06T15:49:18;13.50;54.50
5461;DHT22;2753;49.196;8.286;2023-04-06T15:51:45;13.50;54.80
5461;DHT22;2753;49.196;8.286;2023-04-06T15:54:11;13.50;55.50
5461;DHT22;2753;49.196;8.286;2023-04-06T15:56:37;13.50;55.70
5461;DHT22;2753;49.196;8.286;2023-04-06T15:59:03;13.40;55.70
5461;DHT22;2753;49.196;8.286;2023-04-06T16:01:29;13.40;55.60
5461;DHT22;2753;49.196;8.286;2023-04-06T16:03:55;13.40;56.30
5461;DHT22;2753;49.196;8.286;2023-04-06T16:06:21;13.30;56.40
5461;DHT22;2753;49.196;8.286;2023-04-06T16:08:46;13.30;56.70
5461;DHT22;2753;49.196;8.286;2023-04-06T16:11:12;13.30;57.40
5461;DHT22;2753;49.196;8.286;2023-04-06T16:13:38;13.20;57.00
5461;DHT22;2753;49.196;8.286;2023-04-06T16:16:04;13.10;56.70